Time;durP1;ratioP1;P1;durP2;ratioP2;P2;SDS_P1;SDS_P2;PMS_P1;PMS_P2;Temp;Humidity;BMP_temperature;BMP_pressure;BME280_temperature;BME280_humidity;BME280_pressure;Samples;Min_cycle;Max_cycle;Signal;HPM_P1;HPM_P2
2022/07/14 00:02:17;;;;;;;0.90;0.85;;;21.50;48.30;;;;;;5019202;28;20034;-58
2022/07/14 00:04:42;;;;;;;1.70;0.90;;;21.50;48.40;;;;;;5013021;28;20039;-59
2022/07/14 00:07:08;;;;;;;3.58;0.88;;;21.50;48.30;;;;;;5017615;28;20038;-59
2022/07/14 00:09:34;;;;;;;3.22;1.00;;;21.50;48.30;;;;;;5013447;28;20026;-59
2022/07/14 00:11:59;;;;;;;3.35;1.15;;;21.50;48.20;;;;;;5017954;28;20036;-60
2022/07/14 00:14:25;;;;;;;1.08;0.98;;;21.50;48.10;;;;;;5007030;28;20023;-60
2022/07/14 00:16:51;;;;;;;1.88;0.90;;;21.50;48.30;;;;;;5021023;28;20034;-60
2022/07/14 00:19:17;;;;;;;1.20;1.00;;;21.50;48.50;;;;;;5006571;28;20030;-58
2022/07/14 00:21:43;;;;;;;1.40;1.25;;;21.50;48.50;;;;;;5011884;28;20030;-59
2022/07/14 00:24:11;;;;;;;1.73;1.63;;;21.50;48.60;;;;;;5002489;28;20073;-58
2022/07/14 00:26:39;;;;;;;1.30;1.20;;;21.40;48.50;;;;;;5024420;28;20034;-58
2022/07/14 00:29:06;;;;;;;1.10;1.00;;;21.40;48.40;;;;;;4976397;28;1225754;-60
2022/07/14 00:31:31;;;;;;;1.25;1.10;;;21.40;48.70;;;;;;5063959;28;20100;-59
2022/07/14 00:33:58;;;;;;;2.72;0.85;;;21.40;49.00;;;;;;5043010;28;20030;-59
2022/07/14 00:36:26;;;;;;;1.70;0.88;;;21.30;49.30;;;;;;5062975;28;20045;-59
2022/07/14 00:38:52;;;;;;;1.60;1.05;;;21.30;49.50;;;;;;5047888;28;20021;-59
2022/07/14 00:41:18;;;;;;;2.83;0.82;;;21.30;49.70;;;;;;5065146;28;20033;-59
2022/07/14 00:43:44;;;;;;;0.85;0.80;;;21.20;49.70;;;;;;5047164;28;20045;-58
2022/07/14 00:46:10;;;;;;;1.13;0.90;;;21.20;50.00;;;;;;5050664;28;20044;-58
2022/07/14 00:48:35;;;;;;;4.35;0.80;;;21.20;50.30;;;;;;5070944;28;20070;-59
2022/07/14 00:51:01;;;;;;;3.13;0.90;;;21.10;50.40;;;;;;5065022;28;20066;-60
2022/07/14 00:53:27;;;;;;;1.52;0.80;;;21.10;50.10;;;;;;5043493;28;20053;-58
2022/07/14 00:55:53;;;;;;;0.80;0.80;;;21.00;50.10;;;;;;5057528;28;20033;-59
2022/07/14 00:58:18;;;;;;;1.13;0.90;;;21.00;50.10;;;;;;5055554;28;20040;-59
2022/07/14 01:00:44;;;;;;;2.03;1.00;;;21.00;50.10;;;;;;5056890;28;20030;-59
2022/07/14 01:03:11;;;;;;;0.90;0.90;;;21.00;50.30;;;;;;5054936;28;20084;-59
2022/07/14 01:05:36;;;;;;;0.75;0.75;;;20.90;50.40;;;;;;5043719;28;20030;-60
2022/07/14 01:08:03;;;;;;;1.15;0.90;;;20.90;50.80;;;;;;5054863;28;20090;-58
2022/07/14 01:10:28;;;;;;;3.15;0.82;;;20.90;50.90;;;;;;5044695;28;20474;-59
2022/07/14 01:13:02;;;;;;;0.73;0.70;;;20.90;51.30;;;;;;5059471;28;20026;-60
2022/07/14 01:15:28;;;;;;;0.82;0.77;;;20.80;51.50;;;;;;5040622;28;20507;-59
2022/07/14 01:17:54;;;;;;;0.70;0.70;;;20.80;51.10;;;;;;5044353;28;20033;-59
2022/07/14 01:20:21;;;;;;;1.88;0.90;;;20.70;51.30;;;;;;5046241;28;20481;-58
2022/07/14 01:22:47;;;;;;;3.22;0.80;;;20.70;51.50;;;;;;5059586;28;21625;-60
2022/07/14 01:25:15;;;;;;;1.17;0.80;;;20.60;51.60;;;;;;5048339;28;20029;-58
2022/07/14 01:27:41;;;;;;;7.72;1.05;;;20.60;51.80;;;;;;5043240;28;20022;-59
2022/07/14 01:30:08;;;;;;;2.95;0.70;;;20.60;51.70;;;;;;5048490;28;20069;-58
2022/07/14 01:32:34;;;;;;;1.45;0.80;;;20.60;51.70;;;;;;5056290;28;20025;-59
2022/07/14 01:34:59;;;;;;;1.23;0.90;;;20.60;51.70;;;;;;5045949;28;20025;-60
2022/07/14 01:37:26;;;;;;;2.25;1.00;;;20.50;51.60;;;;;;5051225;28;20065;-59
2022/07/14 01:39:52;;;;;;;0.90;0.75;;;20.50;51.60;;;;;;5050460;28;20017;-58
2022/07/14 01:42:18;;;;;;;4.43;0.98;;;20.50;51.60;;;;;;5048017;28;20031;-58
2022/07/14 01:44:43;;;;;;;0.95;0.85;;;20.40;51.80;;;;;;5059320;28;20116;-59
2022/07/14 01:47:09;;;;;;;1.85;1.00;;;20.40;52.10;;;;;;5041218;28;20060;-59
2022/07/14 01:49:36;;;;;;;1.38;0.90;;;20.40;52.10;;;;;;5054228;28;20084;-58
2022/07/14 01:52:02;;;;;;;1.10;1.00;;;20.40;52.30;;;;;;5066126;28;20049;-58
2022/07/14 01:54:28;;;;;;;1.70;1.00;;;20.40;52.50;;;;;;5046876;28;20056;-58
2022/07/14 01:56:53;;;;;;;1.75;1.00;;;20.40;52.50;;;;;;5049187;28;20029;-58
2022/07/14 01:59:19;;;;;;;5.88;0.90;;;20.30;52.50;;;;;;5047558;28;20025;-59
2022/07/14 02:01:46;;;;;;;1.80;0.90;;;20.30;52.60;;;;;;5045738;28;20087;-59
2022/07/14 02:04:17;;;;;;;1.70;0.90;;;20.30;52.70;;;;;;5048592;28;20033;-58
2022/07/14 02:06:45;;;;;;;1.42;0.80;;;20.20;52.80;;;;;;5046695;28;20053;-58
2022/07/14 02:09:11;;;;;;;6.43;1.10;;;20.20;52.70;;;;;;5049886;28;20099;-61
2022/07/14 02:14:21;;;;;;;4.13;1.05;;;20.20;52.80;;;;;;5041399;28;20052;-59
2022/07/14 02:16:47;;;;;;;2.05;1.00;;;20.20;52.70;;;;;;5062222;28;20025;-59
2022/07/14 02:19:13;;;;;;;1.42;0.98;;;20.10;52.90;;;;;;5053701;28;20029;-58
2022/07/14 02:21:40;;;;;;;1.48;0.70;;;20.10;53.00;;;;;;5047556;28;20102;-59
2022/07/14 02:24:09;;;;;;;3.13;0.77;;;20.10;53.10;;;;;;5053851;28;20037;-60
2022/07/14 02:26:36;;;;;;;1.80;0.90;;;20.10;53.30;;;;;;5043278;28;20036;-58
2022/07/14 02:29:05;;;;;;;1.67;1.02;;;20.10;53.20;;;;;;5046999;28;20048;-59
2022/07/14 02:31:33;;;;;;;1.42;0.82;;;20.10;53.50;;;;;;5059055;28;20046;-60
2022/07/14 02:34:00;;;;;;;1.20;0.80;;;20.00;53.40;;;;;;5060090;28;20030;-59
2022/07/14 02:36:26;;;;;;;2.25;1.10;;;20.00;53.50;;;;;;5047465;28;20037;-59
2022/07/14 02:38:52;;;;;;;1.13;0.80;;;20.00;53.50;;;;;;5056109;28;20032;-59
2022/07/14 02:41:17;;;;;;;1.70;0.80;;;19.90;53.60;;;;;;5054716;28;20025;-58
2022/07/14 02:43:43;;;;;;;1.90;1.00;;;19.90;53.60;;;;;;5047578;28;20044;-60
2022/07/14 02:46:09;;;;;;;2.05;0.98;;;19.90;53.60;;;;;;5055067;28;20244;-59
2022/07/14 02:48:35;;;;;;;3.08;1.00;;;19.80;53.80;;;;;;5031180;28;20037;-59
2022/07/14 02:51:06;;;;;;;2.70;0.70;;;19.80;53.80;;;;;;5045471;28;20033;-59
2022/07/14 02:53:34;;;;;;;6.15;0.93;;;19.70;53.70;;;;;;5033607;28;20139;-58
2022/07/14 02:56:03;;;;;;;3.85;1.02;;;19.70;53.80;;;;;;5034005;28;20049;-59
2022/07/14 02:58:29;;;;;;;2.80;0.80;;;19.60;53.70;;;;;;5041776;28;20029;-59
2022/07/14 03:00:55;;;;;;;1.60;0.93;;;19.60;53.90;;;;;;5030795;28;20029;-58
2022/07/14 03:03:22;;;;;;;1.60;0.80;;;19.50;54.10;;;;;;5046839;28;20119;-58
2022/07/14 03:05:48;;;;;;;1.83;0.85;;;19.40;54.50;;;;;;5046513;28;20056;-59
2022/07/14 03:08:14;;;;;;;1.30;0.90;;;19.40;53.90;;;;;;5054056;28;20048;-59
2022/07/14 03:10:41;;;;;;;1.85;1.08;;;19.40;53.90;;;;;;5048772;28;20032;-59
2022/07/14 03:13:07;;;;;;;4.97;1.40;;;19.30;54.00;;;;;;5050044;28;20025;-59
2022/07/14 03:15:33;;;;;;;3.60;0.80;;;19.30;54.20;;;;;;5050094;28;20029;-59
2022/07/14 03:17:59;;;;;;;1.20;0.90;;;19.30;54.10;;;;;;5061553;28;20456;-58
2022/07/14 03:20:25;;;;;;;0.95;0.85;;;19.20;54.00;;;;;;5051341;28;20028;-60
2022/07/14 03:22:51;;;;;;;2.42;1.00;;;19.20;54.20;;;;;;5057525;28;20030;-59
2022/07/14 03:25:17;;;;;;;1.15;0.93;;;19.20;54.30;;;;;;5055986;28;20041;-59
2022/07/14 03:27:46;;;;;;;1.25;0.90;;;19.10;54.10;;;;;;5046103;28;20038;-60
2022/07/14 03:30:12;;;;;;;0.85;0.70;;;19.10;54.30;;;;;;5053673;28;20052;-61
2022/07/14 03:32:39;;;;;;;3.38;0.77;;;19.10;54.20;;;;;;5056917;28;20037;-61
2022/07/14 03:35:07;;;;;;;3.05;0.85;;;19.00;54.10;;;;;;5050653;28;20053;-60
2022/07/14 03:37:33;;;;;;;3.88;0.98;;;19.00;54.20;;;;;;5051791;28;20052;-60
2022/07/14 03:39:59;;;;;;;3.15;0.95;;;19.00;54.30;;;;;;5061552;28;20037;-59
2022/07/14 03:42:24;;;;;;;2.22;0.90;;;18.90;54.40;;;;;;5065149;28;20025;-60
2022/07/14 03:44:50;;;;;;;3.50;0.63;;;18.90;54.30;;;;;;5045129;28;20045;-58
2022/07/14 03:47:16;;;;;;;0.80;0.70;;;18.90;54.30;;;;;;5064514;28;20033;-59
2022/07/14 03:49:42;;;;;;;0.85;0.60;;;18.90;54.30;;;;;;5046053;28;20017;-59
2022/07/14 03:52:09;;;;;;;1.52;0.80;;;18.80;54.20;;;;;;5046058;28;20032;-59
2022/07/14 03:54:36;;;;;;;0.82;0.57;;;18.80;54.30;;;;;;5054578;28;20024;-59
2022/07/14 03:57:03;;;;;;;1.60;0.90;;;18.80;54.20;;;;;;5065858;28;20024;-60
2022/07/14 03:59:28;;;;;;;1.52;0.70;;;18.70;54.40;;;;;;5049012;28;20478;-60
2022/07/14 04:01:54;;;;;;;2.22;0.82;;;18.70;54.50;;;;;;5045732;28;20044;-59
2022/07/14 04:04:20;;;;;;;0.80;0.80;;;18.70;54.60;;;;;;5051016;28;20091;-59
2022/07/14 04:06:45;;;;;;;3.45;0.82;;;18.60;54.90;;;;;;5065090;28;20036;-58
2022/07/14 04:09:11;;;;;;;1.80;0.70;;;18.60;54.90;;;;;;5043908;28;20036;-60
2022/07/14 04:11:37;;;;;;;2.45;1.52;;;18.50;54.70;;;;;;5045691;28;20547;-58
2022/07/14 04:14:03;;;;;;;2.72;1.77;;;18.50;54.50;;;;;;5047546;28;20029;-59
2022/07/14 04:16:28;;;;;;;3.80;2.03;;;18.50;54.40;;;;;;5064254;28;20033;-60
2022/07/14 04:18:54;;;;;;;4.38;1.30;;;18.50;54.60;;;;;;5049020;28;20047;-59
2022/07/14 04:21:20;;;;;;;2.72;1.15;;;18.50;54.60;;;;;;5056835;28;20080;-59
2022/07/14 04:23:45;;;;;;;3.85;1.48;;;18.50;54.80;;;;;;5047279;28;20037;-59
2022/07/14 04:26:11;;;;;;;1.05;0.80;;;18.50;54.80;;;;;;5045176;28;20036;-61
2022/07/14 04:28:37;;;;;;;1.13;0.88;;;18.60;54.90;;;;;;5058586;28;20387;-60
2022/07/14 04:31:03;;;;;;;1.08;0.70;;;18.60;54.70;;;;;;5044399;28;20113;-60
2022/07/14 04:33:29;;;;;;;2.42;0.82;;;18.70;54.80;;;;;;5057189;28;20033;-59
2022/07/14 04:35:54;;;;;;;1.27;1.05;;;18.70;54.90;;;;;;5048150;28;20026;-58
2022/07/14 04:38:21;;;;;;;2.00;0.93;;;18.80;55.00;;;;;;5048951;28;20039;-59
2022/07/14 04:40:51;;;;;;;2.05;0.90;;;18.80;55.10;;;;;;5049423;28;20113;-59
2022/07/14 04:43:17;;;;;;;2.53;0.90;;;18.90;55.30;;;;;;5064627;28;20032;-60
2022/07/14 04:45:45;;;;;;;3.50;0.70;;;19.00;55.00;;;;;;5042966;28;20372;-58
2022/07/14 04:48:11;;;;;;;1.17;0.60;;;19.00;54.80;;;;;;5046570;28;20036;-59
2022/07/14 04:53:21;;;;;;;1.80;0.90;;;19.10;55.00;;;;;;5043144;28;20091;-59
2022/07/14 04:55:47;;;;;;;1.15;1.02;;;19.20;54.70;;;;;;5048656;28;20041;-61
2022/07/14 04:58:12;;;;;;;1.00;0.88;;;19.30;54.80;;;;;;5063134;28;20040;-60
2022/07/14 05:00:38;;;;;;;5.13;0.90;;;19.40;54.80;;;;;;5043134;28;20029;-59
2022/07/14 05:03:04;;;;;;;1.17;0.70;;;19.50;54.80;;;;;;5054649;28;20076;-58
2022/07/14 05:05:29;;;;;;;1.60;0.70;;;19.60;54.90;;;;;;5058252;28;20034;-59
2022/07/14 05:07:55;;;;;;;0.95;0.70;;;19.70;54.90;;;;;;5056478;28;20088;-58
2022/07/14 05:10:21;;;;;;;1.88;0.70;;;19.80;55.00;;;;;;5055574;28;20034;-58
2022/07/14 05:12:47;;;;;;;4.00;1.05;;;20.00;55.00;;;;;;5057364;28;20026;-58
2022/07/14 05:15:12;;;;;;;2.67;1.08;;;20.10;54.90;;;;;;5060864;28;20535;-59
2022/07/14 05:17:38;;;;;;;3.83;0.90;;;20.20;54.80;;;;;;5068116;28;20388;-58
2022/07/14 05:20:04;;;;;;;1.65;0.73;;;20.40;54.50;;;;;;5049123;28;20445;-58
2022/07/14 05:22:37;;;;;;;1.75;1.13;;;20.60;54.30;;;;;;5048786;28;20056;-59
2022/07/14 05:25:11;;;;;;;2.25;0.90;;;20.70;54.50;;;;;;5057640;28;20677;-58
2022/07/14 05:27:39;;;;;;;2.85;0.93;;;20.80;54.10;;;;;;5068148;28;20404;-60
2022/07/14 05:30:06;;;;;;;12.00;1.65;;;20.90;53.80;;;;;;5049259;28;20041;-60
2022/07/14 05:32:32;;;;;;;5.50;1.10;;;21.00;53.80;;;;;;5048572;28;20021;-59
2022/07/14 05:34:58;;;;;;;3.40;0.82;;;21.10;53.60;;;;;;5060004;28;20026;-60
2022/07/14 05:37:24;;;;;;;11.00;1.17;;;21.20;53.50;;;;;;5059876;28;20542;-59
2022/07/14 05:39:50;;;;;;;4.70;0.95;;;21.30;53.30;;;;;;5049877;28;20043;-59
2022/07/14 05:42:20;;;;;;;9.13;0.90;;;21.30;53.10;;;;;;5048222;28;20157;-59
2022/07/14 05:44:47;;;;;;;4.47;1.10;;;21.40;52.90;;;;;;5057998;28;20049;-59
2022/07/14 05:47:13;;;;;;;3.75;0.90;;;21.50;53.00;;;;;;5068346;28;20045;-60
2022/07/14 05:49:40;;;;;;;9.00;1.30;;;21.60;53.00;;;;;;5051361;28;20033;-59
2022/07/14 05:52:05;;;;;;;11.13;1.33;;;21.70;52.70;;;;;;5066950;28;20029;-59
2022/07/14 05:54:31;;;;;;;14.23;1.60;;;21.80;52.50;;;;;;5047245;28;20038;-60
2022/07/14 05:56:57;;;;;;;10.18;1.70;;;21.90;52.40;;;;;;5056313;28;20047;-59
2022/07/14 05:59:23;;;;;;;4.47;1.23;;;22.00;52.40;;;;;;5053663;28;20112;-58
2022/07/14 06:01:49;;;;;;;11.75;1.40;;;22.20;52.30;;;;;;5047227;28;20026;-59
2022/07/14 06:04:15;;;;;;;7.10;1.13;;;22.30;52.40;;;;;;5054146;28;20033;-59
2022/07/14 06:06:47;;;;;;;7.55;1.20;;;22.40;52.00;;;;;;5046968;28;20139;-59
2022/07/14 06:09:14;;;;;;;1.90;0.95;;;22.50;51.90;;;;;;5048347;28;20128;-60
2022/07/14 06:11:41;;;;;;;4.20;1.20;;;22.60;51.60;;;;;;5047097;28;20052;-58
2022/07/14 06:14:07;;;;;;;5.13;1.30;;;22.70;51.40;;;;;;5050041;28;20116;-59
2022/07/14 06:16:33;;;;;;;5.00;1.25;;;22.80;51.30;;;;;;5048193;28;20381;-61
2022/07/14 06:18:59;;;;;;;9.23;1.52;;;22.90;51.10;;;;;;5057023;28;20026;-59
2022/07/14 06:21:25;;;;;;;6.00;1.50;;;23.00;50.90;;;;;;5048681;28;20055;-58
2022/07/14 06:23:51;;;;;;;5.10;1.63;;;23.20;50.90;;;;;;5058664;28;20094;-59
2022/07/14 06:26:16;;;;;;;3.53;1.25;;;23.30;50.80;;;;;;5034795;28;20037;-61
2022/07/14 06:28:42;;;;;;;6.18;1.17;;;23.50;50.70;;;;;;5062250;28;20071;-60
2022/07/14 06:31:09;;;;;;;5.28;1.13;;;23.70;50.40;;;;;;5046598;28;20050;-59
2022/07/14 06:33:34;;;;;;;5.13;1.40;;;23.80;49.60;;;;;;5045698;28;20057;-61
2022/07/14 06:36:00;;;;;;;2.47;1.10;;;23.90;49.20;;;;;;5043482;28;20397;-60
2022/07/14 06:38:26;;;;;;;6.25;1.20;;;24.10;49.20;;;;;;5061332;28;20032;-61
2022/07/14 06:40:52;;;;;;;2.20;1.10;;;24.20;48.70;;;;;;5045753;28;20179;-59
2022/07/14 06:43:18;;;;;;;3.13;1.00;;;24.40;48.20;;;;;;5062401;28;20101;-58
2022/07/14 06:45:44;;;;;;;3.58;1.05;;;24.50;47.20;;;;;;5051860;28;20033;-59
2022/07/14 06:48:09;;;;;;;5.30;1.02;;;24.70;46.90;;;;;;5045030;28;21195;-58
2022/07/14 06:50:35;;;;;;;5.10;0.80;;;24.90;46.60;;;;;;5054563;28;20032;-60
2022/07/14 06:53:01;;;;;;;1.20;0.70;;;25.00;46.40;;;;;;5064862;28;20068;-61
2022/07/14 06:55:27;;;;;;;3.00;1.05;;;25.20;46.60;;;;;;5053643;28;20036;-60
2022/07/14 06:57:53;;;;;;;1.52;0.77;;;25.40;46.80;;;;;;5066797;28;20033;-60
2022/07/14 07:00:18;;;;;;;6.47;0.93;;;25.60;47.20;;;;;;5046667;28;20056;-60
2022/07/14 07:02:44;;;;;;;2.88;1.13;;;25.70;47.00;;;;;;5047633;28;20033;-61
2022/07/14 07:07:59;;;;;;;2.72;0.73;;;26.10;46.40;;;;;;5026963;28;20080;-60
2022/07/14 07:10:25;;;;;;;2.00;0.80;;;26.40;46.00;;;;;;5057756;28;20022;-61
2022/07/14 07:12:51;;;;;;;4.10;0.77;;;26.60;46.20;;;;;;5047433;28;20053;-61
2022/07/14 07:15:17;;;;;;;6.53;1.30;;;26.70;45.60;;;;;;5056696;28;20044;-61
2022/07/14 07:17:42;;;;;;;3.15;0.80;;;26.90;45.10;;;;;;5043613;28;20060;-59
2022/07/14 07:20:12;;;;;;;1.73;0.70;;;27.10;45.20;;;;;;5064314;28;20037;-59
2022/07/14 07:22:38;;;;;;;4.05;0.98;;;27.20;45.10;;;;;;5041450;28;20036;-60
2022/07/14 07:25:08;;;;;;;2.30;0.93;;;27.40;45.00;;;;;;5054076;28;20210;-59
2022/07/14 07:27:35;;;;;;;2.90;0.60;;;27.60;44.90;;;;;;5052858;28;20460;-60
2022/07/14 07:30:01;;;;;;;4.80;0.80;;;27.80;44.90;;;;;;5051194;28;20115;-60
2022/07/14 07:32:29;;;;;;;1.17;0.70;;;27.90;44.70;;;;;;5050206;28;20036;-60
2022/07/14 07:34:55;;;;;;;6.15;0.80;;;28.20;44.50;;;;;;5049785;28;20439;-59
2022/07/14 07:37:21;;;;;;;2.28;0.70;;;28.30;44.00;;;;;;5045472;28;20088;-60
2022/07/14 07:39:48;;;;;;;3.03;0.60;;;28.50;43.40;;;;;;5053661;28;20056;-60
2022/07/14 07:42:14;;;;;;;1.08;0.88;;;28.70;43.10;;;;;;5040601;28;20033;-59
2022/07/14 07:44:39;;;;;;;4.18;0.85;;;28.80;42.80;;;;;;5040692;28;20053;-60
2022/07/14 07:47:05;;;;;;;4.18;0.63;;;29.00;42.30;;;;;;5046840;28;20030;-60
2022/07/14 07:49:31;;;;;;;6.65;0.95;;;29.20;41.20;;;;;;5052138;28;20033;-60
2022/07/14 07:52:01;;;;;;;1.77;0.60;;;29.30;41.00;;;;;;5044478;28;20025;-60
2022/07/14 07:54:28;;;;;;;1.63;0.60;;;29.50;40.30;;;;;;5052156;28;20021;-59
2022/07/14 07:56:54;;;;;;;2.35;0.55;;;29.70;39.30;;;;;;5046016;28;20341;-60
2022/07/14 07:59:20;;;;;;;0.40;0.40;;;29.70;38.00;;;;;;5046777;28;20025;-60
2022/07/14 08:01:46;;;;;;;2.90;0.70;;;29.90;38.10;;;;;;5042769;28;20037;-60
2022/07/14 08:04:14;;;;;;;3.28;0.50;;;30.00;37.70;;;;;;5050338;28;20037;-59
2022/07/14 08:06:40;;;;;;;2.35;0.70;;;30.20;37.00;;;;;;5039522;28;20035;-59
2022/07/14 08:09:10;;;;;;;0.82;0.52;;;30.30;36.90;;;;;;5050144;28;20409;-59
2022/07/14 08:11:36;;;;;;;1.17;0.50;;;30.50;36.30;;;;;;5037572;28;20032;-59
2022/07/14 08:14:02;;;;;;;0.75;0.50;;;30.60;36.20;;;;;;5052636;28;20123;-58
2022/07/14 08:16:28;;;;;;;0.57;0.40;;;30.80;35.70;;;;;;5040312;28;20053;-61
2022/07/14 08:18:53;;;;;;;0.70;0.50;;;31.00;35.20;;;;;;5047679;28;20044;-59
2022/07/14 08:21:19;;;;;;;1.20;0.52;;;31.10;34.40;;;;;;5050999;28;20030;-60
2022/07/14 08:23:44;;;;;;;1.23;0.50;;;31.30;34.20;;;;;;5044634;28;20034;-60
2022/07/14 08:26:10;;;;;;;2.10;0.60;;;31.40;33.50;;;;;;4981876;28;20067;-61
2022/07/14 08:28:36;;;;;;;1.38;0.60;;;31.50;33.60;;;;;;5047497;28;20049;-61
2022/07/14 08:31:02;;;;;;;2.22;0.55;;;31.70;33.50;;;;;;5047804;28;20045;-61
2022/07/14 08:33:28;;;;;;;1.75;0.60;;;31.80;33.80;;;;;;5050159;28;20100;-60
2022/07/14 08:35:53;;;;;;;0.93;0.65;;;31.90;33.40;;;;;;5063313;28;20044;-61
2022/07/14 08:38:20;;;;;;;4.45;0.60;;;32.00;31.90;;;;;;5048627;28;20044;-60
2022/07/14 08:40:47;;;;;;;2.25;0.90;;;32.20;31.60;;;;;;5059647;28;20021;-61
2022/07/14 08:43:14;;;;;;;2.78;0.50;;;32.30;30.90;;;;;;5053011;28;20021;-60
2022/07/14 08:45:41;;;;;;;2.72;0.70;;;32.40;30.00;;;;;;5053632;28;20044;-60
2022/07/14 08:48:09;;;;;;;2.03;0.70;;;32.60;30.20;;;;;;5051746;28;20041;-60
2022/07/14 08:50:34;;;;;;;2.50;0.55;;;32.70;30.30;;;;;;5066815;28;20017;-60
2022/07/14 08:53:04;;;;;;;1.73;0.60;;;32.80;29.30;;;;;;5055508;28;20034;-60
2022/07/14 08:55:30;;;;;;;0.70;0.50;;;32.90;28.40;;;;;;5063491;28;20368;-60
2022/07/14 08:57:56;;;;;;;1.98;0.60;;;32.90;28.60;;;;;;5055214;28;20036;-60
2022/07/14 09:00:22;;;;;;;1.10;0.60;;;32.80;28.60;;;;;;5056786;28;20021;-61
2022/07/14 09:02:53;;;;;;;1.95;0.52;;;32.90;29.60;;;;;;5069385;28;20488;-60
2022/07/14 09:05:19;;;;;;;1.40;0.55;;;32.90;28.70;;;;;;5045424;28;20091;-60
2022/07/14 09:07:45;;;;;;;1.13;0.60;;;33.00;28.90;;;;;;5064548;28;20034;-61
2022/07/14 09:10:17;;;;;;;2.70;0.57;;;33.20;28.70;;;;;;5048281;28;20057;-61
2022/07/14 09:12:44;;;;;;;1.92;0.63;;;33.30;27.90;;;;;;5067374;28;20068;-63
2022/07/14 09:17:59;;;;;;;0.90;0.40;;;33.40;28.20;;;;;;5043890;28;20048;-61
2022/07/14 09:20:28;;;;;;;1.73;0.57;;;33.40;26.90;;;;;;5060078;28;20033;-61
2022/07/14 09:22:56;;;;;;;2.60;0.40;;;33.40;26.70;;;;;;5069056;28;20048;-62
2022/07/14 09:25:23;;;;;;;1.50;0.50;;;33.50;27.20;;;;;;5047018;28;20126;-61
2022/07/14 09:27:49;;;;;;;5.97;0.60;;;33.50;26.80;;;;;;5064893;28;20131;-60
2022/07/14 09:30:15;;;;;;;1.90;0.52;;;33.50;26.80;;;;;;5057953;28;20038;-61
2022/07/14 09:32:46;;;;;;;0.88;0.50;;;33.50;26.90;;;;;;5067896;28;20036;-61
2022/07/14 09:35:13;;;;;;;2.25;0.80;;;33.50;26.20;;;;;;5046259;28;20029;-61
2022/07/14 09:37:39;;;;;;;1.77;0.80;;;33.60;26.30;;;;;;5066445;28;20035;-61
2022/07/14 09:40:11;;;;;;;0.60;0.60;;;33.70;26.50;;;;;;5057267;28;20028;-60
2022/07/14 09:42:57;;;;;;;4.53;0.50;;;33.70;26.00;;;;;;5044466;28;20028;-62
2022/07/14 09:45:29;;;;;;;1.50;0.50;;;33.70;25.60;;;;;;5039756;28;20041;-61
2022/07/14 09:48:14;;;;;;;0.77;0.47;;;33.70;25.30;;;;;;5061131;28;20441;-62
2022/07/14 09:50:51;;;;;;;1.02;0.50;;;33.70;25.70;;;;;;5035680;28;20279;-61
2022/07/14 09:53:31;;;;;;;5.40;0.40;;;33.70;26.00;;;;;;5036075;28;20041;-61
2022/07/14 09:56:01;;;;;;;4.15;0.52;;;33.80;26.10;;;;;;5033972;28;20029;-61
2022/07/14 09:58:40;;;;;;;1.42;0.70;;;33.90;26.10;;;;;;5060196;28;20025;-62
2022/07/14 10:01:09;;;;;;;0.80;0.50;;;33.90;25.80;;;;;;5038155;28;20028;-61
2022/07/14 10:03:37;;;;;;;1.63;0.50;;;34.00;25.60;;;;;;5047344;28;20022;-60
2022/07/14 10:06:05;;;;;;;2.15;0.60;;;34.00;25.50;;;;;;5058733;28;20038;-61
2022/07/14 10:08:35;;;;;;;1.30;0.60;;;34.00;25.40;;;;;;5065352;28;20025;-60
2022/07/14 10:11:05;;;;;;;1.05;0.50;;;34.00;25.00;;;;;;5063054;28;20029;-61
2022/07/14 10:13:31;;;;;;;3.15;0.50;;;34.00;25.70;;;;;;5047262;28;20035;-59
2022/07/14 10:15:58;;;;;;;0.50;0.50;;;34.00;25.30;;;;;;5048150;28;20026;-61
2022/07/14 10:18:26;;;;;;;1.60;0.60;;;34.00;26.00;;;;;;5046917;28;20032;-60
2022/07/14 10:20:54;;;;;;;0.50;0.40;;;34.10;25.10;;;;;;5045818;28;20040;-61
2022/07/14 10:23:21;;;;;;;0.50;0.50;;;34.20;25.50;;;;;;5066857;28;20029;-61
2022/07/14 10:25:48;;;;;;;2.70;0.50;;;34.20;26.00;;;;;;5044649;28;20030;-61
2022/07/14 10:28:18;;;;;;;6.03;0.68;;;34.40;25.00;;;;;;5065891;28;20021;-61
2022/07/14 10:31:15;;;;;;;1.20;0.60;;;34.40;24.40;;;;;;5045831;28;20030;-60
2022/07/14 10:33:58;;;;;;;0.55;0.40;;;34.50;23.70;;;;;;5063054;28;20561;-60
2022/07/14 10:36:35;;;;;;;2.97;0.52;;;34.50;25.00;;;;;;5045346;28;20413;-60
2022/07/14 10:39:22;;;;;;;2.05;0.63;;;34.60;24.00;;;;;;5045244;28;20133;-60
2022/07/14 10:42:02;;;;;;;1.08;0.43;;;34.70;23.90;;;;;;5050138;28;20029;-61
2022/07/14 10:44:31;;;;;;;3.58;0.57;;;34.70;24.70;;;;;;5038061;28;20087;-62
2022/07/14 10:47:08;;;;;;;4.30;0.60;;;34.80;24.70;;;;;;5046920;28;20032;-60
2022/07/14 10:50:01;;;;;;;7.53;0.65;;;34.80;23.50;;;;;;5034300;28;20114;-61
2022/07/14 10:52:29;;;;;;;1.92;0.50;;;34.80;23.00;;;;;;5044397;28;20033;-62
2022/07/14 10:55:32;;;;;;;3.70;0.75;;;34.80;24.10;;;;;;5049159;28;20155;-61
2022/07/14 10:58:00;;;;;;;1.05;0.60;;;34.80;23.40;;;;;;5042663;28;20065;-60
2022/07/14 11:00:57;;;;;;;3.15;0.55;;;34.90;23.50;;;;;;5045824;28;20030;-62
2022/07/14 11:03:37;;;;;;;4.20;0.60;;;34.90;22.90;;;;;;5025487;28;20037;-60
2022/07/14 11:06:09;;;;;;;4.72;0.52;;;34.90;23.20;;;;;;5048961;28;20522;-61
2022/07/14 11:08:40;;;;;;;2.67;0.65;;;35.00;23.90;;;;;;5050192;28;20021;-62
2022/07/14 11:11:23;;;;;;;1.75;0.50;;;35.00;23.40;;;;;;5041794;28;20472;-62
2022/07/14 11:14:01;;;;;;;1.10;0.50;;;35.10;23.40;;;;;;5042088;28;20033;-62
2022/07/14 11:16:50;;;;;;;0.85;0.65;;;35.10;23.20;;;;;;5048883;28;20056;-61
2022/07/14 11:19:37;;;;;;;0.88;0.47;;;35.20;23.30;;;;;;5044197;28;20112;-62
2022/07/14 11:22:13;;;;;;;1.55;0.40;;;35.30;23.10;;;;;;5044641;28;20079;-60
2022/07/14 11:24:47;;;;;;;1.08;0.60;;;35.40;22.80;;;;;;5044477;28;20071;-61
2022/07/14 11:27:31;;;;;;;1.45;0.40;;;35.50;23.00;;;;;;5049401;28;20040;-60
2022/07/14 11:30:12;;;;;;;0.80;0.40;;;35.60;22.00;;;;;;5043508;28;20057;-61
2022/07/14 11:32:38;;;;;;;1.23;0.50;;;35.60;22.40;;;;;;5042479;28;20056;-60
2022/07/14 11:38:00;;;;;;;1.55;0.40;;;35.70;22.20;;;;;;5039623;28;20067;-62
2022/07/14 11:40:49;;;;;;;1.58;0.40;;;35.70;21.40;;;;;;5051301;28;20049;-61
2022/07/14 11:43:30;;;;;;;5.05;0.50;;;35.80;21.60;;;;;;5039685;28;20035;-61
2022/07/14 11:45:56;;;;;;;7.97;0.60;;;35.80;21.80;;;;;;5060134;28;20495;-60
2022/07/14 11:48:28;;;;;;;4.43;0.73;;;35.80;20.90;;;;;;5040203;28;20088;-59
2022/07/14 11:51:02;;;;;;;0.88;0.45;;;35.80;21.00;;;;;;5030218;28;20090;-61
2022/07/14 11:53:29;;;;;;;5.15;0.40;;;35.90;20.30;;;;;;5047932;28;20038;-61
2022/07/14 11:55:55;;;;;;;1.45;0.40;;;35.90;20.20;;;;;;5060853;28;20033;-61
2022/07/14 11:58:24;;;;;;;1.85;0.50;;;35.90;20.40;;;;;;5034087;28;20408;-60
2022/07/14 12:00:54;;;;;;;1.23;0.50;;;36.00;20.30;;;;;;5055213;28;20033;-60
2022/07/14 12:03:20;;;;;;;1.13;0.40;;;36.00;19.90;;;;;;5044718;28;20025;-62
2022/07/14 12:05:50;;;;;;;0.50;0.40;;;36.00;20.50;;;;;;5062072;28;20035;-61
2022/07/14 12:08:24;;;;;;;1.00;0.57;;;36.10;20.50;;;;;;5065461;28;20029;-61
2022/07/14 12:10:50;;;;;;;0.60;0.50;;;36.10;19.50;;;;;;5027854;28;20026;-62
2022/07/14 12:13:18;;;;;;;6.43;0.50;;;36.10;19.60;;;;;;5046456;28;20032;-62
2022/07/14 12:15:45;;;;;;;2.08;0.60;;;36.10;20.20;;;;;;5052776;28;20025;-61
2022/07/14 12:18:12;;;;;;;0.52;0.40;;;36.20;20.00;;;;;;5051279;28;20057;-59
2022/07/14 12:20:47;;;;;;;0.50;0.40;;;36.20;20.20;;;;;;5043121;28;20029;-60
2022/07/14 12:23:14;;;;;;;1.98;0.60;;;36.30;20.40;;;;;;5039890;28;20025;-61
2022/07/14 12:25:50;;;;;;;1.30;0.52;;;36.40;20.40;;;;;;5038767;28;20274;-62
2022/07/14 12:28:18;;;;;;;4.18;0.77;;;36.50;20.30;;;;;;5044098;28;20045;-60
2022/07/14 12:30:52;;;;;;;0.88;0.60;;;36.50;20.70;;;;;;5047174;28;20054;-63
2022/07/14 12:33:39;;;;;;;0.93;0.50;;;36.60;20.70;;;;;;5042501;28;20441;-60
2022/07/14 12:36:12;;;;;;;1.48;0.60;;;36.70;21.10;;;;;;5032763;28;20022;-59
2022/07/14 12:38:39;;;;;;;1.92;0.77;;;36.70;20.00;;;;;;5036993;28;20036;-61
2022/07/14 12:41:06;;;;;;;3.08;0.60;;;36.80;20.60;;;;;;5038760;28;20036;-59
2022/07/14 12:43:34;;;;;;;1.10;0.60;;;36.70;20.20;;;;;;5043860;28;20461;-62
2022/07/14 12:46:23;;;;;;;1.25;0.80;;;36.80;20.50;;;;;;5043850;28;20033;-60
2022/07/14 12:48:52;;;;;;;1.10;0.60;;;36.80;20.60;;;;;;5040411;28;20060;-60
2022/07/14 12:51:33;;;;;;;1.88;0.60;;;36.80;20.60;;;;;;5049482;28;20017;-62
2022/07/14 12:54:08;;;;;;;0.70;0.52;;;36.90;20.50;;;;;;5043386;28;20030;-59
2022/07/14 12:56:45;;;;;;;2.78;0.47;;;37.00;20.30;;;;;;5038009;28;20032;-60
2022/07/14 12:59:17;;;;;;;0.82;0.50;;;37.00;19.80;;;;;;5043284;28;20029;-62
2022/07/14 13:02:02;;;;;;;1.23;0.60;;;37.00;20.00;;;;;;5055545;28;20033;-60
2022/07/14 13:04:40;;;;;;;2.08;0.60;;;37.00;18.90;;;;;;5045118;28;20064;-60
2022/07/14 13:07:30;;;;;;;0.50;0.50;;;36.90;18.90;;;;;;5042792;28;20036;-59